createdAt,value
2022-12-28T00:01:46.845Z,13.77
2022-12-28T00:06:50.867Z,10.13
2022-12-28T00:11:53.279Z,12.80
2022-12-28T00:16:55.578Z,12.43
2022-12-28T00:21:57.929Z,14.57
2022-12-28T00:27:00.159Z,13.07
2022-12-28T00:32:02.501Z,12.00
2022-12-28T00:37:09.180Z,8.70
2022-12-28T00:42:20.361Z,10.20
2022-12-28T00:47:22.822Z,12.43
2022-12-28T00:52:25.096Z,10.27
2022-12-28T00:57:27.683Z,10.63
2022-12-28T01:02:31.182Z,9.77
2022-12-28T01:07:33.603Z,11.83
2022-12-28T01:12:38.451Z,10.23
2022-12-28T01:17:41.013Z,9.53
2022-12-28T01:22:43.239Z,11.43
2022-12-28T01:27:45.455Z,12.63
2022-12-28T01:32:47.657Z,9.67
2022-12-28T01:37:50.062Z,9.87
2022-12-28T01:42:52.313Z,10.43
2022-12-28T01:47:55.375Z,14.57
2022-12-28T01:53:02.142Z,10.40
2022-12-28T01:58:18.592Z,12.53
2022-12-28T02:03:23.989Z,11.23
2022-12-28T02:08:59.099Z,14.03
2022-12-28T02:14:05.403Z,10.80
2022-12-28T02:19:10.174Z,11.53
2022-12-28T02:25:11.531Z,12.57
2022-12-28T02:30:15.158Z,8.83
2022-12-28T02:35:20.353Z,17.27
2022-12-28T02:40:36.178Z,10.37
2022-12-28T02:46:04.984Z,9.20
2022-12-28T02:51:38.751Z,10.38
2022-12-28T02:56:56.358Z,11.70
2022-12-28T03:02:21.853Z,11.90
2022-12-28T03:08:20.488Z,12.23
2022-12-28T03:13:45.357Z,16.17
2022-12-28T03:19:20.901Z,13.87
2022-12-28T03:24:42.422Z,14.70
2022-12-28T03:30:22.946Z,11.87
2022-12-28T03:35:45.582Z,11.33
2022-12-28T03:40:50.086Z,15.73
2022-12-28T03:46:21.070Z,14.23
2022-12-28T03:51:25.403Z,12.63
2022-12-28T03:56:29.789Z,14.87
2022-12-28T04:01:36.008Z,14.73
2022-12-28T04:06:38.828Z,16.10
2022-12-28T04:11:41.199Z,14.43
2022-12-28T04:16:48.962Z,16.73
2022-12-28T04:21:53.130Z,20.70
2022-12-28T04:26:55.886Z,14.93
2022-12-28T04:31:58.150Z,14.83
2022-12-28T04:37:01.083Z,14.50
2022-12-28T04:42:03.337Z,15.13
2022-12-28T04:47:05.719Z,14.80
2022-12-28T04:52:08.387Z,13.57
2022-12-28T04:57:10.759Z,17.07
2022-12-28T05:02:13.036Z,14.17
2022-12-28T05:07:15.332Z,15.17
2022-12-28T05:12:17.576Z,16.20
2022-12-28T05:17:19.848Z,18.97
2022-12-28T05:22:22.148Z,17.47
2022-12-28T05:27:24.458Z,16.73
2022-12-28T05:32:26.680Z,15.93
2022-12-28T05:37:29.075Z,12.90
2022-12-28T05:42:32.376Z,15.87
2022-12-28T05:47:34.724Z,19.07
2022-12-28T05:52:38.621Z,18.60
2022-12-28T05:57:41.226Z,16.33
2022-12-28T06:02:43.933Z,16.40
2022-12-28T06:07:46.241Z,20.77
2022-12-28T06:12:48.605Z,20.67
2022-12-28T06:17:53.880Z,18.03
2022-12-28T06:22:57.164Z,20.30
2022-12-28T06:27:59.528Z,19.23
2022-12-28T06:33:02.313Z,18.47
2022-12-28T06:38:04.638Z,18.73
2022-12-28T06:43:07.105Z,21.23
2022-12-28T06:48:11.124Z,21.60
2022-12-28T06:53:14.476Z,16.40
2022-12-28T06:58:17.085Z,16.83
2022-12-28T07:03:19.639Z,21.40
2022-12-28T07:08:21.893Z,18.23
2022-12-28T07:13:28.144Z,18.47
2022-12-28T07:18:31.089Z,15.60
2022-12-28T07:23:33.874Z,17.23
2022-12-28T07:28:40.646Z,16.00
2022-12-28T07:33:43.756Z,23.57
2022-12-28T07:38:46.570Z,21.83
2022-12-28T07:43:50.512Z,32.67
2022-12-28T07:48:53.489Z,40.33
2022-12-28T07:53:58.348Z,30.50
2022-12-28T07:59:04.379Z,26.40
2022-12-28T08:04:11.140Z,28.20
2022-12-28T08:09:14.687Z,29.77
2022-12-28T08:14:17.001Z,23.17
2022-12-28T08:19:20.116Z,23.00
2022-12-28T08:24:22.716Z,24.87
2022-12-28T08:29:25.123Z,26.37
2022-12-28T08:34:27.578Z,28.10
2022-12-28T08:39:29.858Z,23.03
2022-12-28T08:44:32.112Z,24.00
2022-12-28T08:49:34.354Z,21.70
2022-12-28T08:54:37.457Z,21.97
2022-12-28T08:59:39.687Z,20.63
2022-12-28T09:04:42.368Z,20.70
2022-12-28T09:09:44.825Z,19.37
2022-12-28T09:14:48.241Z,25.97
2022-12-28T09:19:52.463Z,21.70
2022-12-28T09:24:55.406Z,25.13
2022-12-28T09:30:03.679Z,24.53
2022-12-28T09:35:07.426Z,25.97
2022-12-28T09:40:10.319Z,22.17
2022-12-28T09:45:12.898Z,21.23
2022-12-28T09:50:22.751Z,25.03
2022-12-28T09:55:25.345Z,32.73
2022-12-28T10:00:52.845Z,22.40
2022-12-28T10:05:58.045Z,22.80
2022-12-28T10:11:02.510Z,20.63
2022-12-28T10:16:15.865Z,22.20
2022-12-28T10:21:20.589Z,23.00
2022-12-28T10:26:23.133Z,23.93
2022-12-28T10:31:39.659Z,25.77
2022-12-28T10:36:42.720Z,23.60
2022-12-28T10:41:45.827Z,22.33
2022-12-28T10:47:01.250Z,15.87
2022-12-28T10:52:15.629Z,20.97
2022-12-28T10:57:38.028Z,16.30
2022-12-28T11:02:40.690Z,17.30
2022-12-28T11:07:45.773Z,16.93
2022-12-28T11:12:47.992Z,17.67
2022-12-28T11:17:56.524Z,16.27
2022-12-28T11:22:59.030Z,16.07
2022-12-28T11:28:06.560Z,15.60
2022-12-28T11:33:29.387Z,15.20
2022-12-28T11:38:58.537Z,15.10
2022-12-28T11:44:04.779Z,16.37
2022-12-28T11:49:30.281Z,16.13
2022-12-28T11:54:50.583Z,14.23
2022-12-28T11:59:52.809Z,13.77
2022-12-28T12:04:55.619Z,12.27
2022-12-28T12:10:34.277Z,14.00
2022-12-28T12:15:43.366Z,12.87
2022-12-28T12:20:51.028Z,11.85
2022-12-28T12:25:54.611Z,13.70
2022-12-28T12:30:57.147Z,12.97
2022-12-28T12:36:10.535Z,10.00
2022-12-28T12:41:15.623Z,14.43
2022-12-28T12:46:43.359Z,11.40
2022-12-28T12:52:04.057Z,15.20
2022-12-28T12:57:19.737Z,14.30
2022-12-28T13:02:26.086Z,12.57
2022-12-28T13:07:28.689Z,10.90
2022-12-28T13:12:33.442Z,12.90
2022-12-28T13:17:36.137Z,10.83
2022-12-28T13:22:43.119Z,9.40
2022-12-28T13:27:45.353Z,11.87
2022-12-28T13:32:52.950Z,9.03
2022-12-28T13:38:10.155Z,8.43
2022-12-28T13:43:43.531Z,10.97
2022-12-28T13:48:51.158Z,9.43
2022-12-28T13:53:58.290Z,10.57
2022-12-28T13:59:04.351Z,7.10
2022-12-28T14:09:44.578Z,8.17
2022-12-28T14:14:50.081Z,8.90
2022-12-28T14:19:52.976Z,8.50
2022-12-28T14:25:02.821Z,10.37
2022-12-28T14:30:09.102Z,8.17
2022-12-28T14:35:21.637Z,9.77
2022-12-28T14:46:07.406Z,9.37
2022-12-28T14:51:17.513Z,7.63
2022-12-28T14:56:20.239Z,10.03
2022-12-28T15:01:25.772Z,9.70
2022-12-28T15:06:31.051Z,12.53
2022-12-28T15:11:33.322Z,10.50
2022-12-28T15:16:35.675Z,9.67
2022-12-28T15:21:37.960Z,12.53
2022-12-28T15:26:40.188Z,11.37
2022-12-28T15:31:42.470Z,10.87
2022-12-28T15:36:45.808Z,8.13
2022-12-28T15:41:48.157Z,7.53
2022-12-28T15:46:50.918Z,7.87
2022-12-28T15:51:53.356Z,8.43
2022-12-28T15:56:56.769Z,6.63
2022-12-28T16:01:59.435Z,10.33
2022-12-28T16:07:02.218Z,5.77
2022-12-28T16:12:04.942Z,6.20
2022-12-28T16:17:07.153Z,7.27
2022-12-28T16:22:09.701Z,7.63
2022-12-28T16:27:12.059Z,6.60
2022-12-28T16:32:14.285Z,6.87
2022-12-28T16:37:17.131Z,10.00
2022-12-28T16:42:19.373Z,10.27
2022-12-28T16:47:21.602Z,5.77
2022-12-28T16:52:23.819Z,6.50
2022-12-28T16:57:26.715Z,6.27
2022-12-28T17:02:29.265Z,6.27
2022-12-28T17:07:31.740Z,7.50
2022-12-28T17:12:34.205Z,6.43
2022-12-28T17:17:36.493Z,5.33
2022-12-28T17:22:39.314Z,6.83
2022-12-28T17:27:41.732Z,5.80
2022-12-28T17:32:45.526Z,5.17
2022-12-28T17:37:47.960Z,7.10
2022-12-28T17:42:50.337Z,8.07
2022-12-28T17:47:52.660Z,6.33
2022-12-28T17:52:54.941Z,7.70
2022-12-28T17:57:57.453Z,7.27
2022-12-28T18:02:59.861Z,7.93
2022-12-28T18:08:02.418Z,6.90
2022-12-28T18:13:04.830Z,7.10
2022-12-28T18:18:07.933Z,8.37
2022-12-28T18:23:11.176Z,7.40
2022-12-28T18:28:14.266Z,9.83
2022-12-28T18:33:16.524Z,8.07
2022-12-28T18:38:21.254Z,10.10
2022-12-28T18:43:24.073Z,8.47
2022-12-28T18:48:27.495Z,7.80
2022-12-28T18:53:31.051Z,6.87
2022-12-28T18:58:35.870Z,7.93
2022-12-28T19:03:39.110Z,7.60
2022-12-28T19:08:41.788Z,7.33
2022-12-28T19:13:44.208Z,5.33
2022-12-28T19:18:46.644Z,4.40
2022-12-28T19:23:56.014Z,8.03
2022-12-28T19:28:58.537Z,7.57
2022-12-28T19:34:00.799Z,6.87
2022-12-28T19:39:03.467Z,7.80
2022-12-28T19:44:08.248Z,5.27
2022-12-28T19:49:10.814Z,6.40
2022-12-28T19:54:13.258Z,7.07
2022-12-28T19:59:15.612Z,7.73
2022-12-28T20:04:17.852Z,4.43
2022-12-28T20:09:20.131Z,4.00
2022-12-28T20:14:25.205Z,4.30
2022-12-28T20:19:27.878Z,6.13
2022-12-28T20:24:30.172Z,3.47
2022-12-28T20:29:32.865Z,5.20
2022-12-28T20:34:35.265Z,4.43
2022-12-28T20:39:38.267Z,5.87
2022-12-28T20:44:40.535Z,5.47
2022-12-28T20:49:42.880Z,5.67
2022-12-28T20:54:45.228Z,4.97
2022-12-28T20:59:47.510Z,6.37
2022-12-28T21:04:49.779Z,6.00
2022-12-28T21:09:52.223Z,6.80
2022-12-28T21:14:54.540Z,6.20
2022-12-28T21:19:56.769Z,9.00
2022-12-28T21:24:59.010Z,6.33
2022-12-28T21:30:01.240Z,9.17
2022-12-28T21:35:04.247Z,9.23
2022-12-28T21:40:09.010Z,7.70
2022-12-28T21:45:11.754Z,9.60
2022-12-28T21:50:14.129Z,6.03
2022-12-28T21:55:34.684Z,4.23
2022-12-28T22:00:55.433Z,8.47
2022-12-28T22:06:02.915Z,4.73
2022-12-28T22:11:23.727Z,6.30
2022-12-28T22:16:26.089Z,3.97
2022-12-28T22:21:29.316Z,6.70
2022-12-28T22:26:31.506Z,2.87
2022-12-28T22:31:33.720Z,2.67
2022-12-28T22:36:36.164Z,3.07
2022-12-28T22:41:38.451Z,4.50
2022-12-28T22:46:40.774Z,3.73
2022-12-28T22:51:43.198Z,3.50
2022-12-28T22:56:45.652Z,1.53
2022-12-28T23:01:48.544Z,3.67
2022-12-28T23:06:51.265Z,2.50
2022-12-28T23:11:53.492Z,2.93
2022-12-28T23:16:56.744Z,2.40
2022-12-28T23:22:17.464Z,2.37
2022-12-28T23:27:22.516Z,3.27
2022-12-28T23:32:24.847Z,2.30
2022-12-28T23:37:27.061Z,3.33
2022-12-28T23:42:29.250Z,3.37
2022-12-28T23:47:31.605Z,1.20
2022-12-28T23:52:33.926Z,6.17
2022-12-28T23:57:36.265Z,2.87
